sensor_id;sensor_type;location;lat;lon;timestamp;P1;durP1;ratioP1;P2;durP2;ratioP2
57567;SDS011;43403;51.948;5.922;2022-09-09T00:02:18;5.55;;;2.90;;
57567;SDS011;43403;51.948;5.922;2022-09-09T00:04:59;5.55;;;2.92;;
57567;SDS011;43403;51.948;5.922;2022-09-09T00:07:46;6.47;;;3.08;;
57567;SDS011;43403;51.948;5.922;2022-09-09T00:10:29;5.63;;;2.90;;
57567;SDS011;43403;51.948;5.922;2022-09-09T00:13:02;6.18;;;2.40;;
57567;SDS011;43403;51.948;5.922;2022-09-09T00:15:42;4.38;;;2.40;;
57567;SDS011;43403;51.948;5.922;2022-09-09T00:21:06;4.53;;;2.60;;
57567;SDS011;43403;51.948;5.922;2022-09-09T00:23:54;3.33;;;2.30;;
57567;SDS011;43403;51.948;5.922;2022-09-09T00:26:55;4.77;;;2.20;;
57567;SDS011;43403;51.948;5.922;2022-09-09T00:29:23;3.35;;;1.95;;
57567;SDS011;43403;51.948;5.922;2022-09-09T00:32:09;5.57;;;2.30;;
57567;SDS011;43403;51.948;5.922;2022-09-09T00:34:47;2.90;;;2.03;;
57567;SDS011;43403;51.948;5.922;2022-09-09T00:37:17;3.97;;;2.40;;
57567;SDS011;43403;51.948;5.922;2022-09-09T00:42:18;4.10;;;2.25;;
57567;SDS011;43403;51.948;5.922;2022-09-09T00:47:43;4.85;;;2.35;;
57567;SDS011;43403;51.948;5.922;2022-09-09T00:58:33;4.15;;;2.05;;
57567;SDS011;43403;51.948;5.922;2022-09-09T01:01:08;3.08;;;2.20;;
57567;SDS011;43403;51.948;5.922;2022-09-09T01:03:46;3.88;;;2.13;;
57567;SDS011;43403;51.948;5.922;2022-09-09T01:06:29;3.90;;;2.33;;
57567;SDS011;43403;51.948;5.922;2022-09-09T01:14:35;3.22;;;1.50;;
57567;SDS011;43403;51.948;5.922;2022-09-09T01:17:10;4.65;;;2.20;;
57567;SDS011;43403;51.948;5.922;2022-09-09T01:22:12;4.93;;;2.10;;
57567;SDS011;43403;51.948;5.922;2022-09-09T01:25:06;5.07;;;2.30;;
57567;SDS011;43403;51.948;5.922;2022-09-09T01:27:44;4.38;;;1.80;;
57567;SDS011;43403;51.948;5.922;2022-09-09T01:30:15;5.63;;;1.90;;
57567;SDS011;43403;51.948;5.922;2022-09-09T01:32:48;3.78;;;1.63;;
57567;SDS011;43403;51.948;5.922;2022-09-09T01:38:08;4.00;;;1.88;;
57567;SDS011;43403;51.948;5.922;2022-09-09T01:40:35;1.83;;;1.58;;
57567;SDS011;43403;51.948;5.922;2022-09-09T01:43:02;3.90;;;1.65;;
57567;SDS011;43403;51.948;5.922;2022-09-09T01:45:29;2.08;;;1.42;;
57567;SDS011;43403;51.948;5.922;2022-09-09T01:47:57;3.13;;;1.60;;
57567;SDS011;43403;51.948;5.922;2022-09-09T01:50:24;2.75;;;1.40;;
57567;SDS011;43403;51.948;5.922;2022-09-09T01:52:52;2.40;;;1.63;;
57567;SDS011;43403;51.948;5.922;2022-09-09T01:55:25;3.55;;;1.75;;
57567;SDS011;43403;51.948;5.922;2022-09-09T02:00:43;6.53;;;1.80;;
57567;SDS011;43403;51.948;5.922;2022-09-09T02:08:52;2.83;;;1.65;;
57567;SDS011;43403;51.948;5.922;2022-09-09T02:11:26;2.83;;;1.70;;
57567;SDS011;43403;51.948;5.922;2022-09-09T02:13:56;3.40;;;1.90;;
57567;SDS011;43403;51.948;5.922;2022-09-09T02:21:52;4.25;;;2.20;;
57567;SDS011;43403;51.948;5.922;2022-09-09T02:24:21;3.55;;;2.03;;
57567;SDS011;43403;51.948;5.922;2022-09-09T02:26:49;4.47;;;2.00;;
57567;SDS011;43403;51.948;5.922;2022-09-09T02:29:20;2.60;;;2.13;;
57567;SDS011;43403;51.948;5.922;2022-09-09T02:31:51;5.45;;;2.58;;
57567;SDS011;43403;51.948;5.922;2022-09-09T02:34:21;3.03;;;2.28;;
57567;SDS011;43403;51.948;5.922;2022-09-09T02:36:50;3.50;;;2.15;;
57567;SDS011;43403;51.948;5.922;2022-09-09T02:39:19;3.33;;;2.33;;
57567;SDS011;43403;51.948;5.922;2022-09-09T02:41:46;6.47;;;2.47;;
57567;SDS011;43403;51.948;5.922;2022-09-09T02:44:14;5.07;;;2.42;;
57567;SDS011;43403;51.948;5.922;2022-09-09T02:49:16;5.50;;;3.05;;
57567;SDS011;43403;51.948;5.922;2022-09-09T02:54:33;3.95;;;2.17;;
57567;SDS011;43403;51.948;5.922;2022-09-09T02:57:04;4.38;;;2.47;;
57567;SDS011;43403;51.948;5.922;2022-09-09T02:59:37;4.40;;;2.33;;
57567;SDS011;43403;51.948;5.922;2022-09-09T03:02:04;3.83;;;2.15;;
57567;SDS011;43403;51.948;5.922;2022-09-09T03:04:31;4.07;;;2.20;;
57567;SDS011;43403;51.948;5.922;2022-09-09T03:06:57;5.45;;;2.33;;
57567;SDS011;43403;51.948;5.922;2022-09-09T03:09:24;3.55;;;2.28;;
57567;SDS011;43403;51.948;5.922;2022-09-09T03:11:52;4.68;;;2.25;;
57567;SDS011;43403;51.948;5.922;2022-09-09T03:14:18;4.88;;;2.30;;
57567;SDS011;43403;51.948;5.922;2022-09-09T03:19:14;2.97;;;2.00;;
57567;SDS011;43403;51.948;5.922;2022-09-09T03:21:40;4.93;;;2.60;;
57567;SDS011;43403;51.948;5.922;2022-09-09T03:24:07;4.43;;;2.60;;
57567;SDS011;43403;51.948;5.922;2022-09-09T03:26:33;5.13;;;2.30;;
57567;SDS011;43403;51.948;5.922;2022-09-09T03:28:59;4.78;;;2.60;;
57567;SDS011;43403;51.948;5.922;2022-09-09T03:31:26;6.18;;;2.50;;
57567;SDS011;43403;51.948;5.922;2022-09-09T03:33:58;5.90;;;2.70;;
57567;SDS011;43403;51.948;5.922;2022-09-09T03:36:26;6.85;;;2.90;;
57567;SDS011;43403;51.948;5.922;2022-09-09T03:38:53;6.55;;;2.80;;
57567;SDS011;43403;51.948;5.922;2022-09-09T03:41:23;5.20;;;2.80;;
57567;SDS011;43403;51.948;5.922;2022-09-09T03:43:50;4.97;;;3.03;;
57567;SDS011;43403;51.948;5.922;2022-09-09T03:46:21;6.38;;;3.00;;
57567;SDS011;43403;51.948;5.922;2022-09-09T03:48:48;7.95;;;2.90;;
57567;SDS011;43403;51.948;5.922;2022-09-09T03:51:15;8.20;;;3.10;;
57567;SDS011;43403;51.948;5.922;2022-09-09T03:53:42;4.90;;;2.95;;
57567;SDS011;43403;51.948;5.922;2022-09-09T03:56:09;7.05;;;3.10;;
57567;SDS011;43403;51.948;5.922;2022-09-09T03:58:36;6.75;;;2.80;;
57567;SDS011;43403;51.948;5.922;2022-09-09T04:03:31;6.82;;;3.30;;
57567;SDS011;43403;51.948;5.922;2022-09-09T04:05:59;5.78;;;3.20;;
57567;SDS011;43403;51.948;5.922;2022-09-09T04:08:26;5.43;;;3.40;;
57567;SDS011;43403;51.948;5.922;2022-09-09T04:10:53;6.80;;;3.63;;
57567;SDS011;43403;51.948;5.922;2022-09-09T04:13:24;8.68;;;3.10;;
57567;SDS011;43403;51.948;5.922;2022-09-09T04:15:52;7.35;;;3.28;;
57567;SDS011;43403;51.948;5.922;2022-09-09T04:20:47;6.53;;;2.92;;
57567;SDS011;43403;51.948;5.922;2022-09-09T04:23:14;8.30;;;3.70;;
57567;SDS011;43403;51.948;5.922;2022-09-09T04:25:45;6.10;;;3.40;;
57567;SDS011;43403;51.948;5.922;2022-09-09T04:28:16;8.20;;;3.25;;
57567;SDS011;43403;51.948;5.922;2022-09-09T04:30:43;7.65;;;3.10;;
57567;SDS011;43403;51.948;5.922;2022-09-09T04:33:11;6.47;;;2.75;;
57567;SDS011;43403;51.948;5.922;2022-09-09T04:35:38;4.80;;;3.30;;
57567;SDS011;43403;51.948;5.922;2022-09-09T04:38:05;5.57;;;2.95;;
57567;SDS011;43403;51.948;5.922;2022-09-09T04:40:35;5.55;;;2.53;;
57567;SDS011;43403;51.948;5.922;2022-09-09T04:43:02;7.60;;;2.60;;
57567;SDS011;43403;51.948;5.922;2022-09-09T04:45:30;4.55;;;2.35;;
57567;SDS011;43403;51.948;5.922;2022-09-09T04:47:57;7.35;;;2.63;;
57567;SDS011;43403;51.948;5.922;2022-09-09T04:50:23;10.57;;;2.95;;
57567;SDS011;43403;51.948;5.922;2022-09-09T04:52:51;6.30;;;2.75;;
57567;SDS011;43403;51.948;5.922;2022-09-09T04:55:18;5.03;;;2.28;;
57567;SDS011;43403;51.948;5.922;2022-09-09T04:57:44;6.68;;;2.38;;
57567;SDS011;43403;51.948;5.922;2022-09-09T05:00:11;5.50;;;2.70;;
57567;SDS011;43403;51.948;5.922;2022-09-09T05:02:39;4.60;;;2.20;;
57567;SDS011;43403;51.948;5.922;2022-09-09T05:05:06;7.55;;;2.58;;
57567;SDS011;43403;51.948;5.922;2022-09-09T05:07:32;5.65;;;2.50;;
57567;SDS011;43403;51.948;5.922;2022-09-09T05:09:59;3.70;;;2.13;;
57567;SDS011;43403;51.948;5.922;2022-09-09T05:12:25;9.10;;;2.72;;
57567;SDS011;43403;51.948;5.922;2022-09-09T05:14:52;9.55;;;2.47;;
57567;SDS011;43403;51.948;5.922;2022-09-09T05:17:18;6.18;;;2.40;;
57567;SDS011;43403;51.948;5.922;2022-09-09T05:19:45;6.30;;;2.33;;
57567;SDS011;43403;51.948;5.922;2022-09-09T05:22:11;10.05;;;2.50;;
57567;SDS011;43403;51.948;5.922;2022-09-09T05:24:40;11.00;;;2.70;;
57567;SDS011;43403;51.948;5.922;2022-09-09T05:27:06;7.07;;;2.60;;
57567;SDS011;43403;51.948;5.922;2022-09-09T05:29:33;9.95;;;2.67;;
57567;SDS011;43403;51.948;5.922;2022-09-09T05:31:59;5.97;;;2.45;;
57567;SDS011;43403;51.948;5.922;2022-09-09T05:34:26;7.88;;;2.97;;
57567;SDS011;43403;51.948;5.922;2022-09-09T05:36:53;8.00;;;2.58;;
57567;SDS011;43403;51.948;5.922;2022-09-09T05:39:19;10.30;;;3.42;;
57567;SDS011;43403;51.948;5.922;2022-09-09T05:41:46;11.65;;;2.63;;
57567;SDS011;43403;51.948;5.922;2022-09-09T05:44:12;6.85;;;1.92;;
57567;SDS011;43403;51.948;5.922;2022-09-09T05:46:39;7.78;;;2.42;;
57567;SDS011;43403;51.948;5.922;2022-09-09T05:49:06;9.57;;;3.92;;
57567;SDS011;43403;51.948;5.922;2022-09-09T05:51:32;7.40;;;2.65;;
57567;SDS011;43403;51.948;5.922;2022-09-09T05:53:58;6.53;;;2.70;;
57567;SDS011;43403;51.948;5.922;2022-09-09T05:56:26;9.85;;;2.63;;
57567;SDS011;43403;51.948;5.922;2022-09-09T05:58:54;6.80;;;2.70;;
57567;SDS011;43403;51.948;5.922;2022-09-09T06:01:22;11.10;;;2.93;;
57567;SDS011;43403;51.948;5.922;2022-09-09T06:03:52;8.73;;;3.15;;
57567;SDS011;43403;51.948;5.922;2022-09-09T06:06:19;10.65;;;2.83;;
57567;SDS011;43403;51.948;5.922;2022-09-09T06:08:48;12.07;;;2.60;;
57567;SDS011;43403;51.948;5.922;2022-09-09T06:11:18;7.85;;;2.53;;
57567;SDS011;43403;51.948;5.922;2022-09-09T06:13:46;7.13;;;2.45;;
57567;SDS011;43403;51.948;5.922;2022-09-09T06:16:14;7.32;;;2.70;;
57567;SDS011;43403;51.948;5.922;2022-09-09T06:18:43;8.63;;;2.63;;
57567;SDS011;43403;51.948;5.922;2022-09-09T06:21:43;6.30;;;2.13;;
57567;SDS011;43403;51.948;5.922;2022-09-09T06:24:03;9.55;;;2.50;;
57567;SDS011;43403;51.948;5.922;2022-09-09T06:26:31;8.38;;;2.88;;
57567;SDS011;43403;51.948;5.922;2022-09-09T06:29:00;7.45;;;2.28;;
57567;SDS011;43403;51.948;5.922;2022-09-09T06:31:29;10.57;;;2.65;;
57567;SDS011;43403;51.948;5.922;2022-09-09T06:33:57;12.00;;;2.72;;
57567;SDS011;43403;51.948;5.922;2022-09-09T06:36:25;10.50;;;3.15;;
57567;SDS011;43403;51.948;5.922;2022-09-09T06:38:54;10.10;;;2.42;;
57567;SDS011;43403;51.948;5.922;2022-09-09T06:41:21;7.53;;;2.53;;
57567;SDS011;43403;51.948;5.922;2022-09-09T06:43:49;11.65;;;2.58;;
57567;SDS011;43403;51.948;5.922;2022-09-09T06:46:20;6.25;;;2.22;;
57567;SDS011;43403;51.948;5.922;2022-09-09T06:48:48;12.25;;;2.63;;
57567;SDS011;43403;51.948;5.922;2022-09-09T06:51:19;9.80;;;2.42;;
57567;SDS011;43403;51.948;5.922;2022-09-09T06:53:52;10.25;;;2.20;;
57567;SDS011;43403;51.948;5.922;2022-09-09T06:56:27;6.68;;;2.42;;
57567;SDS011;43403;51.948;5.922;2022-09-09T06:59:02;6.20;;;2.33;;
57567;SDS011;43403;51.948;5.922;2022-09-09T07:01:31;8.18;;;2.38;;
57567;SDS011;43403;51.948;5.922;2022-09-09T07:04:00;6.15;;;2.25;;
57567;SDS011;43403;51.948;5.922;2022-09-09T07:06:30;6.32;;;2.17;;
57567;SDS011;43403;51.948;5.922;2022-09-09T07:08:59;9.85;;;2.33;;
57567;SDS011;43403;51.948;5.922;2022-09-09T07:11:28;6.10;;;2.20;;
57567;SDS011;43403;51.948;5.922;2022-09-09T07:13:56;10.52;;;2.05;;
57567;SDS011;43403;51.948;5.922;2022-09-09T07:16:24;9.50;;;2.58;;
57567;SDS011;43403;51.948;5.922;2022-09-09T07:18:51;5.78;;;2.20;;
57567;SDS011;43403;51.948;5.922;2022-09-09T07:21:18;8.40;;;2.53;;
57567;SDS011;43403;51.948;5.922;2022-09-09T07:23:45;8.80;;;2.53;;
57567;SDS011;43403;51.948;5.922;2022-09-09T07:26:15;8.95;;;2.45;;
57567;SDS011;43403;51.948;5.922;2022-09-09T07:28:45;12.15;;;2.63;;
57567;SDS011;43403;51.948;5.922;2022-09-09T07:31:13;9.63;;;2.47;;
57567;SDS011;43403;51.948;5.922;2022-09-09T07:36:29;9.68;;;2.75;;
57567;SDS011;43403;51.948;5.922;2022-09-09T07:39:05;13.88;;;2.83;;
57567;SDS011;43403;51.948;5.922;2022-09-09T07:41:35;12.38;;;3.53;;
57567;SDS011;43403;51.948;5.922;2022-09-09T07:44:08;13.45;;;2.70;;
57567;SDS011;43403;51.948;5.922;2022-09-09T07:46:37;10.23;;;2.40;;
57567;SDS011;43403;51.948;5.922;2022-09-09T07:49:05;8.82;;;2.47;;
57567;SDS011;43403;51.948;5.922;2022-09-09T07:51:33;11.57;;;2.72;;
57567;SDS011;43403;51.948;5.922;2022-09-09T07:54:03;5.18;;;2.13;;
57567;SDS011;43403;51.948;5.922;2022-09-09T07:56:32;9.77;;;3.13;;
57567;SDS011;43403;51.948;5.922;2022-09-09T07:58:59;11.85;;;2.50;;
57567;SDS011;43403;51.948;5.922;2022-09-09T08:01:27;15.25;;;2.70;;
57567;SDS011;43403;51.948;5.922;2022-09-09T08:04:02;9.77;;;2.40;;
57567;SDS011;43403;51.948;5.922;2022-09-09T08:06:36;8.30;;;2.28;;
57567;SDS011;43403;51.948;5.922;2022-09-09T08:09:07;8.15;;;2.22;;
57567;SDS011;43403;51.948;5.922;2022-09-09T08:11:34;9.13;;;2.22;;
57567;SDS011;43403;51.948;5.922;2022-09-09T08:14:04;6.43;;;2.10;;
57567;SDS011;43403;51.948;5.922;2022-09-09T08:16:33;9.75;;;2.63;;
57567;SDS011;43403;51.948;5.922;2022-09-09T08:19:02;11.00;;;2.88;;
57567;SDS011;43403;51.948;5.922;2022-09-09T08:21:30;8.02;;;1.95;;
57567;SDS011;43403;51.948;5.922;2022-09-09T08:23:59;9.18;;;2.40;;
57567;SDS011;43403;51.948;5.922;2022-09-09T08:26:29;9.65;;;2.13;;
57567;SDS011;43403;51.948;5.922;2022-09-09T08:29:01;11.90;;;2.60;;
57567;SDS011;43403;51.948;5.922;2022-09-09T08:31:30;7.88;;;2.10;;
57567;SDS011;43403;51.948;5.922;2022-09-09T08:33:59;10.73;;;2.03;;
57567;SDS011;43403;51.948;5.922;2022-09-09T08:36:28;6.93;;;2.45;;
57567;SDS011;43403;51.948;5.922;2022-09-09T08:38:56;10.82;;;2.38;;
57567;SDS011;43403;51.948;5.922;2022-09-09T08:41:32;7.90;;;2.00;;
57567;SDS011;43403;51.948;5.922;2022-09-09T08:50:11;7.63;;;2.40;;
57567;SDS011;43403;51.948;5.922;2022-09-09T08:55:37;10.60;;;2.25;;
57567;SDS011;43403;51.948;5.922;2022-09-09T08:58:24;7.80;;;2.10;;
57567;SDS011;43403;51.948;5.922;2022-09-09T09:09:22;6.93;;;1.70;;
57567;SDS011;43403;51.948;5.922;2022-09-09T09:12:10;6.05;;;1.50;;
57567;SDS011;43403;51.948;5.922;2022-09-09T09:14:46;7.30;;;1.92;;
57567;SDS011;43403;51.948;5.922;2022-09-09T09:17:17;8.90;;;1.90;;
57567;SDS011;43403;51.948;5.922;2022-09-09T09:19:45;5.35;;;1.50;;
57567;SDS011;43403;51.948;5.922;2022-09-09T09:22:21;10.63;;;1.80;;
57567;SDS011;43403;51.948;5.922;2022-09-09T09:30:11;5.93;;;1.67;;
57567;SDS011;43403;51.948;5.922;2022-09-09T09:32:56;6.07;;;1.42;;
57567;SDS011;43403;51.948;5.922;2022-09-09T09:35:27;6.95;;;1.70;;
57567;SDS011;43403;51.948;5.922;2022-09-09T09:37:53;6.30;;;1.80;;
57567;SDS011;43403;51.948;5.922;2022-09-09T09:40:48;7.78;;;1.70;;
57567;SDS011;43403;51.948;5.922;2022-09-09T09:43:18;7.65;;;1.42;;
57567;SDS011;43403;51.948;5.922;2022-09-09T09:45:47;4.80;;;1.38;;
57567;SDS011;43403;51.948;5.922;2022-09-09T09:48:34;8.13;;;1.52;;
57567;SDS011;43403;51.948;5.922;2022-09-09T09:51:01;8.18;;;2.03;;
57567;SDS011;43403;51.948;5.922;2022-09-09T09:53:43;6.00;;;1.48;;
57567;SDS011;43403;51.948;5.922;2022-09-09T09:56:10;6.75;;;1.63;;
57567;SDS011;43403;51.948;5.922;2022-09-09T10:01:20;6.15;;;1.60;;
57567;SDS011;43403;51.948;5.922;2022-09-09T10:03:51;9.88;;;1.70;;
57567;SDS011;43403;51.948;5.922;2022-09-09T10:06:29;7.07;;;1.40;;
57567;SDS011;43403;51.948;5.922;2022-09-09T10:08:59;7.15;;;1.50;;
57567;SDS011;43403;51.948;5.922;2022-09-09T10:11:30;7.93;;;1.67;;
57567;SDS011;43403;51.948;5.922;2022-09-09T10:22:50;5.22;;;1.67;;
57567;SDS011;43403;51.948;5.922;2022-09-09T10:25:30;7.32;;;1.60;;
57567;SDS011;43403;51.948;5.922;2022-09-09T10:28:20;10.18;;;1.83;;
57567;SDS011;43403;51.948;5.922;2022-09-09T10:31:14;6.63;;;1.35;;
57567;SDS011;43403;51.948;5.922;2022-09-09T10:36:47;7.35;;;1.40;;
57567;SDS011;43403;51.948;5.922;2022-09-09T10:39:25;7.88;;;1.40;;
57567;SDS011;43403;51.948;5.922;2022-09-09T10:50:18;5.90;;;1.38;;
57567;SDS011;43403;51.948;5.922;2022-09-09T10:53:35;5.43;;;1.63;;
57567;SDS011;43403;51.948;5.922;2022-09-09T10:56:16;9.63;;;1.80;;
57567;SDS011;43403;51.948;5.922;2022-09-09T11:03:47;10.38;;;1.90;;
57567;SDS011;43403;51.948;5.922;2022-09-09T11:06:22;7.40;;;1.50;;
57567;SDS011;43403;51.948;5.922;2022-09-09T11:08:57;8.23;;;2.03;;
57567;SDS011;43403;51.948;5.922;2022-09-09T11:11:37;4.90;;;1.30;;
57567;SDS011;43403;51.948;5.922;2022-09-09T11:14:10;8.90;;;1.85;;
57567;SDS011;43403;51.948;5.922;2022-09-09T11:16:49;6.25;;;1.35;;
57567;SDS011;43403;51.948;5.922;2022-09-09T11:19:29;7.45;;;1.77;;
57567;SDS011;43403;51.948;5.922;2022-09-09T11:25:09;8.40;;;1.50;;
57567;SDS011;43403;51.948;5.922;2022-09-09T11:30:37;10.20;;;1.70;;
57567;SDS011;43403;51.948;5.922;2022-09-09T11:36:04;9.10;;;1.83;;
57567;SDS011;43403;51.948;5.922;2022-09-09T11:38:52;7.00;;;1.63;;
57567;SDS011;43403;51.948;5.922;2022-09-09T11:41:32;7.13;;;1.77;;
57567;SDS011;43403;51.948;5.922;2022-09-09T11:44:08;7.28;;;1.48;;
57567;SDS011;43403;51.948;5.922;2022-09-09T11:46:38;6.50;;;1.42;;
57567;SDS011;43403;51.948;5.922;2022-09-09T11:49:21;5.32;;;1.35;;
57567;SDS011;43403;51.948;5.922;2022-09-09T11:51:52;6.30;;;1.50;;
57567;SDS011;43403;51.948;5.922;2022-09-09T11:54:32;5.82;;;1.63;;
57567;SDS011;43403;51.948;5.922;2022-09-09T11:57:23;7.43;;;1.70;;
57567;SDS011;43403;51.948;5.922;2022-09-09T11:59:52;8.13;;;1.50;;
57567;SDS011;43403;51.948;5.922;2022-09-09T12:02:22;8.38;;;1.95;;
57567;SDS011;43403;51.948;5.922;2022-09-09T12:04:55;7.45;;;1.58;;
57567;SDS011;43403;51.948;5.922;2022-09-09T12:10:03;6.47;;;1.50;;
57567;SDS011;43403;51.948;5.922;2022-09-09T12:12:45;6.03;;;1.60;;
57567;SDS011;43403;51.948;5.922;2022-09-09T12:17:44;4.63;;;1.83;;
57567;SDS011;43403;51.948;5.922;2022-09-09T12:20:14;5.72;;;1.55;;
57567;SDS011;43403;51.948;5.922;2022-09-09T12:25:39;3.95;;;1.52;;
57567;SDS011;43403;51.948;5.922;2022-09-09T12:28:23;5.90;;;1.70;;
57567;SDS011;43403;51.948;5.922;2022-09-09T12:31:44;4.70;;;1.20;;
57567;SDS011;43403;51.948;5.922;2022-09-09T12:34:10;4.70;;;1.20;;
57567;SDS011;43403;51.948;5.922;2022-09-09T12:36:41;5.03;;;1.42;;
57567;SDS011;43403;51.948;5.922;2022-09-09T12:39:27;6.15;;;1.42;;
57567;SDS011;43403;51.948;5.922;2022-09-09T12:41:59;4.32;;;1.20;;
57567;SDS011;43403;51.948;5.922;2022-09-09T12:44:26;7.85;;;1.80;;
57567;SDS011;43403;51.948;5.922;2022-09-09T12:46:56;4.25;;;1.52;;
57567;SDS011;43403;51.948;5.922;2022-09-09T12:49:37;7.32;;;1.38;;
57567;SDS011;43403;51.948;5.922;2022-09-09T12:52:06;4.60;;;1.60;;
57567;SDS011;43403;51.948;5.922;2022-09-09T12:54:42;4.05;;;1.80;;
57567;SDS011;43403;51.948;5.922;2022-09-09T12:57:12;6.38;;;1.52;;
57567;SDS011;43403;51.948;5.922;2022-09-09T12:59:41;4.97;;;1.40;;
57567;SDS011;43403;51.948;5.922;2022-09-09T13:02:35;5.40;;;1.63;;
57567;SDS011;43403;51.948;5.922;2022-09-09T13:05:05;5.47;;;1.40;;
57567;SDS011;43403;51.948;5.922;2022-09-09T13:07:39;3.65;;;1.45;;
57567;SDS011;43403;51.948;5.922;2022-09-09T13:10:05;4.20;;;1.30;;
57567;SDS011;43403;51.948;5.922;2022-09-09T13:12:33;6.03;;;1.58;;
57567;SDS011;43403;51.948;5.922;2022-09-09T13:15:00;4.97;;;1.45;;
57567;SDS011;43403;51.948;5.922;2022-09-09T13:17:27;4.88;;;1.65;;
57567;SDS011;43403;51.948;5.922;2022-09-09T13:19:57;5.35;;;1.48;;
57567;SDS011;43403;51.948;5.922;2022-09-09T13:22:34;4.20;;;1.73;;
57567;SDS011;43403;51.948;5.922;2022-09-09T13:30:20;4.18;;;1.75;;
57567;SDS011;43403;51.948;5.922;2022-09-09T13:33:02;4.47;;;1.40;;
57567;SDS011;43403;51.948;5.922;2022-09-09T13:35:31;3.83;;;1.58;;
57567;SDS011;43403;51.948;5.922;2022-09-09T13:37:58;4.07;;;1.75;;
57567;SDS011;43403;51.948;5.922;2022-09-09T13:40:26;3.60;;;1.67;;
57567;SDS011;43403;51.948;5.922;2022-09-09T13:42:55;4.50;;;1.60;;
57567;SDS011;43403;51.948;5.922;2022-09-09T13:45:24;7.38;;;1.60;;
57567;SDS011;43403;51.948;5.922;2022-09-09T13:47:55;5.10;;;1.60;;
57567;SDS011;43403;51.948;5.922;2022-09-09T13:50:22;4.32;;;1.65;;
57567;SDS011;43403;51.948;5.922;2022-09-09T13:52:51;5.45;;;1.77;;
57567;SDS011;43403;51.948;5.922;2022-09-09T13:55:21;5.75;;;2.05;;
57567;SDS011;43403;51.948;5.922;2022-09-09T13:57:55;6.32;;;1.40;;
57567;SDS011;43403;51.948;5.922;2022-09-09T14:00:23;4.40;;;1.70;;
57567;SDS011;43403;51.948;5.922;2022-09-09T14:02:50;5.68;;;1.60;;
57567;SDS011;43403;51.948;5.922;2022-09-09T14:05:17;4.53;;;1.67;;
57567;SDS011;43403;51.948;5.922;2022-09-09T14:07:44;4.47;;;1.40;;
57567;SDS011;43403;51.948;5.922;2022-09-09T14:10:16;4.53;;;1.40;;
57567;SDS011;43403;51.948;5.922;2022-09-09T14:12:43;6.13;;;1.50;;
57567;SDS011;43403;51.948;5.922;2022-09-09T14:15:09;2.35;;;1.40;;
57567;SDS011;43403;51.948;5.922;2022-09-09T14:17:37;4.45;;;1.50;;
57567;SDS011;43403;51.948;5.922;2022-09-09T14:20:04;5.78;;;1.80;;
57567;SDS011;43403;51.948;5.922;2022-09-09T14:22:35;3.63;;;1.50;;
57567;SDS011;43403;51.948;5.922;2022-09-09T14:25:02;3.90;;;1.40;;
57567;SDS011;43403;51.948;5.922;2022-09-09T14:27:30;4.72;;;1.48;;
57567;SDS011;43403;51.948;5.922;2022-09-09T14:29:56;3.03;;;1.45;;
57567;SDS011;43403;51.948;5.922;2022-09-09T14:32:23;7.97;;;1.63;;
57567;SDS011;43403;51.948;5.922;2022-09-09T14:34:50;6.57;;;1.98;;
57567;SDS011;43403;51.948;5.922;2022-09-09T14:37:17;3.70;;;1.30;;
57567;SDS011;43403;51.948;5.922;2022-09-09T14:39:43;3.25;;;1.30;;
57567;SDS011;43403;51.948;5.922;2022-09-09T14:42:10;5.45;;;1.50;;
57567;SDS011;43403;51.948;5.922;2022-09-09T14:44:37;4.93;;;1.60;;
57567;SDS011;43403;51.948;5.922;2022-09-09T14:47:05;6.45;;;1.65;;
57567;SDS011;43403;51.948;5.922;2022-09-09T14:49:31;6.18;;;1.83;;
57567;SDS011;43403;51.948;5.922;2022-09-09T14:51:57;3.58;;;1.40;;
57567;SDS011;43403;51.948;5.922;2022-09-09T14:54:24;4.75;;;1.85;;
57567;SDS011;43403;51.948;5.922;2022-09-09T14:56:50;4.60;;;1.58;;
57567;SDS011;43403;51.948;5.922;2022-09-09T14:59:17;7.65;;;1.70;;
57567;SDS011;43403;51.948;5.922;2022-09-09T15:01:43;5.05;;;1.30;;
57567;SDS011;43403;51.948;5.922;2022-09-09T15:04:10;6.07;;;1.40;;
57567;SDS011;43403;51.948;5.922;2022-09-09T15:06:39;7.15;;;1.48;;
57567;SDS011;43403;51.948;5.922;2022-09-09T15:11:35;4.68;;;1.40;;
57567;SDS011;43403;51.948;5.922;2022-09-09T15:14:06;4.38;;;1.42;;
57567;SDS011;43403;51.948;5.922;2022-09-09T15:16:34;8.32;;;1.58;;
57567;SDS011;43403;51.948;5.922;2022-09-09T15:19:01;6.85;;;1.40;;
57567;SDS011;43403;51.948;5.922;2022-09-09T15:21:30;8.13;;;1.40;;
57567;SDS011;43403;51.948;5.922;2022-09-09T15:23:58;5.50;;;1.40;;
57567;SDS011;43403;51.948;5.922;2022-09-09T15:26:25;7.22;;;1.50;;
57567;SDS011;43403;51.948;5.922;2022-09-09T15:28:53;4.18;;;1.70;;
57567;SDS011;43403;51.948;5.922;2022-09-09T15:31:23;7.85;;;1.52;;
57567;SDS011;43403;51.948;5.922;2022-09-09T15:33:52;4.28;;;1.25;;
57567;SDS011;43403;51.948;5.922;2022-09-09T15:36:27;8.82;;;1.90;;
57567;SDS011;43403;51.948;5.922;2022-09-09T15:38:56;4.93;;;1.90;;
57567;SDS011;43403;51.948;5.922;2022-09-09T15:41:22;4.82;;;1.52;;
57567;SDS011;43403;51.948;5.922;2022-09-09T15:43:50;4.05;;;1.38;;
57567;SDS011;43403;51.948;5.922;2022-09-09T15:48:50;4.93;;;1.88;;
57567;SDS011;43403;51.948;5.922;2022-09-09T15:51:20;4.68;;;1.38;;
57567;SDS011;43403;51.948;5.922;2022-09-09T15:54:06;4.03;;;1.38;;
57567;SDS011;43403;51.948;5.922;2022-09-09T15:56:33;6.50;;;1.98;;
57567;SDS011;43403;51.948;5.922;2022-09-09T15:59:01;4.70;;;1.83;;
57567;SDS011;43403;51.948;5.922;2022-09-09T16:03:57;6.47;;;1.65;;
57567;SDS011;43403;51.948;5.922;2022-09-09T16:08:52;6.00;;;1.83;;
57567;SDS011;43403;51.948;5.922;2022-09-09T16:11:20;6.47;;;1.42;;
57567;SDS011;43403;51.948;5.922;2022-09-09T16:13:48;4.97;;;1.70;;
57567;SDS011;43403;51.948;5.922;2022-09-09T16:16:17;5.68;;;2.00;;
57567;SDS011;43403;51.948;5.922;2022-09-09T16:18:46;5.40;;;1.50;;
57567;SDS011;43403;51.948;5.922;2022-09-09T16:21:16;4.75;;;1.98;;
57567;SDS011;43403;51.948;5.922;2022-09-09T16:23:43;6.40;;;2.17;;
57567;SDS011;43403;51.948;5.922;2022-09-09T16:26:11;7.95;;;1.70;;
57567;SDS011;43403;51.948;5.922;2022-09-09T16:28:38;3.33;;;1.50;;
57567;SDS011;43403;51.948;5.922;2022-09-09T16:31:06;5.30;;;1.42;;
57567;SDS011;43403;51.948;5.922;2022-09-09T16:33:34;4.68;;;1.50;;
57567;SDS011;43403;51.948;5.922;2022-09-09T16:36:07;3.03;;;1.42;;
57567;SDS011;43403;51.948;5.922;2022-09-09T16:38:34;5.10;;;1.88;;
57567;SDS011;43403;51.948;5.922;2022-09-09T16:41:02;2.85;;;1.30;;
57567;SDS011;43403;51.948;5.922;2022-09-09T16:43:32;4.97;;;1.10;;
57567;SDS011;43403;51.948;5.922;2022-09-09T16:45:59;4.30;;;1.23;;
57567;SDS011;43403;51.948;5.922;2022-09-09T16:48:31;2.85;;;1.20;;
57567;SDS011;43403;51.948;5.922;2022-09-09T16:51:23;2.40;;;1.30;;
57567;SDS011;43403;51.948;5.922;2022-09-09T16:53:50;6.25;;;1.40;;
57567;SDS011;43403;51.948;5.922;2022-09-09T16:56:21;3.10;;;1.23;;
57567;SDS011;43403;51.948;5.922;2022-09-09T16:58:52;4.28;;;1.42;;
57567;SDS011;43403;51.948;5.922;2022-09-09T17:01:21;5.60;;;1.60;;
57567;SDS011;43403;51.948;5.922;2022-09-09T17:03:52;4.25;;;1.58;;
57567;SDS011;43403;51.948;5.922;2022-09-09T17:06:29;5.20;;;1.38;;
57567;SDS011;43403;51.948;5.922;2022-09-09T17:08:57;3.97;;;1.93;;
57567;SDS011;43403;51.948;5.922;2022-09-09T17:11:26;1.65;;;1.30;;
57567;SDS011;43403;51.948;5.922;2022-09-09T17:13:53;3.33;;;1.58;;
57567;SDS011;43403;51.948;5.922;2022-09-09T17:16:21;3.03;;;1.35;;
57567;SDS011;43403;51.948;5.922;2022-09-09T17:18:50;4.75;;;1.60;;
57567;SDS011;43403;51.948;5.922;2022-09-09T17:21:19;6.93;;;1.75;;
57567;SDS011;43403;51.948;5.922;2022-09-09T17:23:46;3.30;;;1.60;;
57567;SDS011;43403;51.948;5.922;2022-09-09T17:26:15;5.53;;;1.60;;
57567;SDS011;43403;51.948;5.922;2022-09-09T17:28:43;2.72;;;1.75;;